createdAt,value
2017-02-10T19:25:29.205Z,21.24
2017-02-10T19:26:38.543Z,20.29
2017-02-10T19:27:48.672Z,19.81
2017-02-10T19:28:57.621Z,19.47
2017-02-10T19:30:06.941Z,19.25
2017-02-10T19:31:16.255Z,19.11
2017-02-10T19:32:25.678Z,19.06
2017-02-10T19:33:35.038Z,19
2017-02-10T19:34:44.799Z,18.95
2017-02-10T19:35:53.725Z,18.99
2017-02-10T19:37:03.043Z,18.98
2017-02-10T19:44:11.749Z,20.97
2017-02-10T19:45:21.096Z,20.72
2017-02-10T19:46:30.402Z,20.38
2017-02-10T19:47:39.706Z,20.21
2017-02-10T19:48:49.826Z,20.13
2017-02-10T19:49:58.975Z,20.05
2017-02-10T19:51:08.280Z,20.1
2017-02-10T19:52:18.416Z,20.05
2017-02-10T19:53:27.738Z,20.08
2017-02-10T19:54:37.045Z,20.02
2017-02-10T19:55:47.321Z,20.03
2017-02-10T19:56:56.631Z,20.03
2017-02-10T19:58:05.940Z,20.03
2017-02-10T19:59:15.280Z,20.02
2017-02-10T20:00:24.184Z,20.03
2017-02-10T20:01:34.406Z,20.02
2017-02-10T20:02:44.125Z,20.03
2017-02-10T20:03:53.841Z,20.05
2017-02-10T20:05:02.735Z,20.01
2017-02-10T20:06:12.043Z,19.95
2017-02-10T20:07:22.470Z,20.02
2017-02-10T20:08:31.787Z,20.1
2017-02-10T20:14:01.303Z,26.23
2017-02-10T20:15:11.437Z,25.23
2017-02-10T20:16:21.146Z,22.68
2017-02-10T20:17:30.042Z,19.43
2017-02-10T20:18:39.345Z,16.2
2017-02-10T20:19:48.797Z,13.36
2017-02-10T20:20:58.108Z,11.06
2017-02-10T20:22:07.821Z,9.11
2017-02-10T20:23:17.123Z,7.53
2017-02-10T20:24:26.918Z,6.27
2017-02-10T20:25:37.038Z,5.27
2017-02-10T20:26:46.745Z,4.41
2017-02-10T20:27:56.871Z,3.72
2017-02-10T20:29:06.677Z,3.29
2017-02-10T20:30:15.585Z,2.77
2017-02-10T20:31:25.033Z,2.52
2017-02-10T20:32:34.353Z,2.25
2017-02-10T20:33:43.652Z,1.99
2017-02-10T20:34:52.950Z,1.8
2017-02-10T20:36:02.448Z,1.62
2017-02-10T20:37:11.831Z,1.45
2017-02-10T20:38:21.946Z,1.3
2017-02-10T20:39:31.240Z,1.24
2017-02-10T20:40:40.991Z,1.15
2017-02-10T20:41:49.891Z,1.05
2017-02-10T20:42:59.337Z,1
2017-02-10T20:44:08.683Z,1.12
2017-02-10T20:45:18.402Z,1.05
2017-02-10T20:46:28.156Z,1.05
2017-02-10T20:47:37.082Z,1.34
2017-02-10T20:55:39.217Z,16.58
2017-02-10T20:56:48.114Z,16.61
2017-02-10T20:57:57.012Z,14.58
2017-02-10T20:59:06.323Z,12.02
2017-02-10T21:00:16.050Z,10.26
2017-02-10T21:01:25.778Z,8.73
2017-02-10T21:02:34.673Z,7.21
2017-02-10T21:03:44.384Z,6
2017-02-10T21:04:54.095Z,5
2017-02-10T21:06:03.861Z,4.23
2017-02-10T21:07:12.765Z,3.69
2017-02-10T21:08:21.713Z,3.28
2017-02-10T21:09:31.826Z,2.74
2017-02-10T21:10:41.127Z,2.48
2017-02-10T21:11:50.834Z,2.25
2017-02-10T21:13:00.141Z,2
2017-02-10T21:14:09.438Z,1.87
2017-02-10T21:15:19.553Z,1.73
2017-02-10T21:16:28.446Z,1.55
2017-02-10T21:17:37.745Z,1.47
2017-02-10T21:18:46.635Z,1.4
2017-02-10T21:19:56.338Z,1.27
2017-02-10T21:21:06.058Z,1.33
2017-02-10T21:22:15.385Z,1.16
2017-02-10T21:23:25.091Z,1.15
2017-02-10T21:24:34.798Z,1.09
2017-02-10T21:25:44.960Z,1
2017-02-10T21:26:53.855Z,1.09
2017-02-10T21:28:03.564Z,0.97
2017-02-10T21:29:12.466Z,1
2017-02-10T21:30:21.762Z,1.02
2017-02-10T21:31:31.584Z,0.97
2017-02-10T21:32:40.880Z,0.93
2017-02-10T21:33:50.578Z,0.91
2017-02-10T21:34:59.878Z,0.91
2017-02-10T21:36:09.178Z,0.93
2017-02-10T21:37:18.066Z,0.8
2017-02-10T21:38:27.773Z,0.78
2017-02-10T21:39:37.889Z,0.8
2017-02-10T21:40:47.602Z,0.84
2017-02-10T21:41:57.740Z,0.73
2017-02-10T21:43:07.034Z,0.75
2017-02-10T21:44:15.928Z,0.75
2017-02-10T21:45:24.817Z,0.76
2017-02-10T21:46:34.112Z,0.76
2017-02-10T21:47:43.007Z,0.78
2017-02-10T21:48:52.303Z,0.73
2017-02-10T21:50:02.039Z,0.83
2017-02-10T21:51:11.339Z,0.76
2017-02-10T21:52:20.582Z,0.79
2017-02-10T21:53:30.288Z,0.69
2017-02-10T21:54:39.173Z,0.69
2017-02-10T21:55:48.468Z,0.69
2017-02-10T21:56:57.766Z,0.73
2017-02-10T21:58:07.165Z,0.68
2017-02-10T21:59:16.460Z,0.73
2017-02-10T22:00:25.753Z,0.68
2017-02-10T22:01:34.644Z,0.68
2017-02-10T22:02:44.755Z,0.66
2017-02-10T22:03:54.163Z,0.7
2017-02-10T22:05:04.271Z,0.73
2017-02-10T22:06:13.566Z,0.78
2017-02-10T22:07:22.866Z,0.66
2017-02-10T22:08:32.167Z,0.72
2017-02-10T22:09:41.154Z,0.7
2017-02-10T22:10:50.450Z,0.75
2017-02-10T22:12:00.164Z,0.75
2017-02-10T22:13:09.471Z,0.73
2017-02-10T22:14:18.361Z,0.76
2017-02-10T22:15:28.525Z,0.72
2017-02-10T22:16:37.825Z,0.7
2017-02-10T22:17:47.121Z,0.69
2017-02-10T22:18:56.015Z,0.68
2017-02-10T22:20:05.310Z,0.69
2017-02-10T22:21:14.703Z,0.72
2017-02-10T22:22:24.412Z,0.68
2017-02-10T22:23:33.307Z,0.75
2017-02-10T22:24:42.636Z,0.78
2017-02-10T22:25:52.342Z,0.76
2017-02-10T22:27:02.944Z,0.68
2017-02-10T22:28:11.837Z,0.61
2017-02-10T22:29:21.559Z,0.62
2017-02-10T22:30:31.272Z,0.65
2017-02-10T22:31:41.413Z,0.61
2017-02-10T22:32:51.116Z,0.65
2017-02-10T22:34:00.851Z,0.7
2017-02-10T22:35:11.369Z,0.76
2017-02-10T22:36:20.254Z,0.76
2017-02-10T22:37:29.144Z,0.7
2017-02-10T22:38:38.642Z,0.76
2017-02-10T22:39:48.347Z,0.66
2017-02-10T22:40:58.051Z,0.73
2017-02-10T22:42:06.938Z,0.72
2017-02-10T22:43:16.231Z,0.72
2017-02-10T22:44:25.609Z,0.75
2017-02-10T22:45:35.718Z,0.69
2017-02-10T22:46:45.831Z,0.69
2017-02-10T22:47:55.125Z,0.7
2017-02-10T22:49:04.013Z,0.69
2017-02-10T22:50:14.273Z,0.73
2017-02-10T22:51:23.569Z,0.7
2017-02-10T22:52:33.276Z,0.73
2017-02-10T22:53:42.568Z,0.69
2017-02-10T22:54:52.267Z,0.75
2017-02-10T22:56:01.202Z,0.72
2017-02-10T22:57:10.904Z,0.66
2017-02-10T22:58:20.609Z,0.73
2017-02-10T22:59:29.902Z,0.72
2017-02-10T23:00:39.198Z,0.76
2017-02-10T23:01:48.592Z,0.7
2017-02-10T23:02:58.295Z,0.66
2017-02-10T23:04:07.191Z,0.68
2017-02-10T23:05:16.894Z,0.7
2017-02-10T23:06:27.010Z,0.7
2017-02-10T23:07:36.864Z,0.76
2017-02-10T23:08:46.566Z,0.72
2017-02-10T23:09:55.457Z,0.76
2017-02-10T23:11:05.160Z,0.75
2017-02-10T23:12:14.457Z,0.7
2017-02-10T23:13:24.152Z,0.72
2017-02-10T23:14:33.455Z,0.72
2017-02-10T23:15:43.162Z,0.73
2017-02-10T23:16:52.458Z,0.78
2017-02-10T23:18:01.359Z,0.69
2017-02-10T23:19:10.400Z,0.68
2017-02-10T23:20:20.100Z,0.65
2017-02-10T23:21:29.800Z,0.69
2017-02-10T23:22:39.090Z,0.61
2017-02-10T23:23:48.793Z,0.68
2017-02-10T23:24:58.344Z,0.6
2017-02-10T23:26:07.233Z,0.75
2017-02-10T23:27:16.949Z,0.61
2017-02-10T23:28:26.242Z,0.62
2017-02-10T23:29:36.352Z,0.58
2017-02-10T23:30:45.389Z,0.61
2017-02-10T23:31:55.494Z,0.69
2017-02-10T23:33:04.790Z,0.75
2017-02-10T23:34:13.674Z,0.68
2017-02-10T23:35:23.381Z,0.69
2017-02-10T23:36:33.184Z,0.78
2017-02-10T23:37:43.698Z,0.7
2017-02-10T23:38:52.995Z,0.75
2017-02-10T23:40:02.699Z,0.75
2017-02-10T23:41:13.218Z,0.72
2017-02-10T23:42:22.256Z,0.72
2017-02-10T23:43:31.958Z,0.68
2017-02-10T23:44:42.070Z,0.61
2017-02-10T23:45:50.957Z,0.69
2017-02-10T23:47:00.685Z,0.65
2017-02-10T23:48:09.727Z,0.62
2017-02-10T23:49:19.434Z,0.76
2017-02-10T23:50:28.324Z,0.69
2017-02-10T23:51:38.034Z,0.7
2017-02-10T23:52:47.740Z,0.76
2017-02-10T23:53:57.547Z,0.78
2017-02-10T23:55:07.259Z,0.66
2017-02-10T23:56:16.959Z,0.73
2017-02-10T23:57:25.842Z,0.72
2017-02-10T23:58:35.546Z,0.73
2017-02-10T23:59:44.890Z,0.78
